Time;durP1;ratioP1;P1;durP2;ratioP2;P2;SDS_P1;SDS_P2;PMS_P1;PMS_P2;Temp;Humidity;BMP_temperature;BMP_pressure;BME280_temperature;BME280_humidity;BME280_pressure;Samples;Min_cycle;Max_cycle;Signal;HPM_P1;HPM_P2
2022/01/07 00:00:19;;;;;;;11.70;6.28;;;;;;;2.69;100.00;100523.22;5008676;28;20086;-66
2022/01/07 00:02:49;;;;;;;9.77;5.40;;;;;;;2.70;100.00;100531.97;5009285;28;20033;-68
2022/01/07 00:05:15;;;;;;;12.13;7.18;;;;;;;2.60;100.00;100512.63;5009561;28;20064;-67
2022/01/07 00:07:41;;;;;;;14.10;6.20;;;;;;;2.70;100.00;100530.22;4991469;28;20131;-67
2022/01/07 00:10:09;;;;;;;15.40;5.13;;;;;;;2.75;100.00;100526.75;5009208;28;20490;-67
2022/01/07 00:12:35;;;;;;;9.88;5.50;;;;;;;2.68;100.00;100521.44;5007017;28;20498;-67
2022/01/07 00:15:00;;;;;;;13.25;6.20;;;;;;;2.67;100.00;100526.69;4991413;28;20033;-67
2022/01/07 00:17:26;;;;;;;9.57;6.13;;;;;;;2.59;100.00;100529.25;5008460;28;20382;-67
2022/01/07 00:19:51;;;;;;;11.18;6.45;;;;;;;2.53;100.00;100512.59;5008891;28;20025;-67
2022/01/07 00:22:17;;;;;;;11.05;5.80;;;;;;;2.47;100.00;100500.28;5009620;28;20470;-67
2022/01/07 00:24:43;;;;;;;12.93;6.35;;;;;;;2.53;100.00;100505.59;5009319;28;20596;-67
2022/01/07 00:27:09;;;;;;;10.10;6.13;;;;;;;2.60;100.00;100502.13;5009015;28;20018;-67
2022/01/07 00:29:34;;;;;;;9.98;5.63;;;;;;;2.60;100.00;100496.88;5009363;28;20398;-67
2022/01/07 00:31:59;;;;;;;10.35;5.72;;;;;;;2.55;100.00;100506.47;5008861;28;20028;-68
2022/01/07 00:34:25;;;;;;;9.68;6.30;;;;;;;2.57;100.00;100496.84;5008952;28;20037;-67
2022/01/07 00:36:50;;;;;;;11.13;6.68;;;;;;;2.56;100.00;100492.50;4991032;28;20046;-68
2022/01/07 00:39:16;;;;;;;14.65;6.40;;;;;;;2.58;100.00;100496.00;5008898;28;20029;-66
2022/01/07 00:41:41;;;;;;;8.13;5.75;;;;;;;2.58;100.00;100498.63;5009247;28;20028;-67
2022/01/07 00:44:07;;;;;;;11.30;5.75;;;;;;;2.50;100.00;100481.06;4993316;28;20033;-68
2022/01/07 00:46:32;;;;;;;9.70;6.55;;;;;;;2.56;100.00;100479.38;4993455;28;20030;-67
2022/01/07 00:48:58;;;;;;;12.57;5.97;;;;;;;2.57;100.00;100486.34;4994912;28;20188;-67
2022/01/07 00:51:23;;;;;;;9.98;5.68;;;;;;;2.59;100.00;100484.63;4993677;28;20030;-67
2022/01/07 00:53:49;;;;;;;11.80;6.53;;;;;;;2.56;100.00;100474.13;4995761;28;20508;-67
2022/01/07 00:56:14;;;;;;;11.27;6.22;;;;;;;2.55;100.00;100474.97;4992979;28;20027;-67
2022/01/07 00:58:40;;;;;;;13.13;6.80;;;;;;;2.55;100.00;100464.47;4991691;28;20030;-66
2022/01/07 01:01:06;;;;;;;11.13;6.63;;;;;;;2.53;100.00;100471.47;4999044;28;20466;-67
2022/01/07 01:03:31;;;;;;;11.85;6.22;;;;;;;2.51;100.00;100467.06;5012782;28;20026;-67
2022/01/07 01:05:58;;;;;;;12.07;5.93;;;;;;;2.46;100.00;100456.53;5012598;28;20069;-67
2022/01/07 01:08:25;;;;;;;9.15;5.65;;;;;;;2.52;100.00;100455.72;5012056;28;20026;-67
2022/01/07 01:10:51;;;;;;;10.85;6.20;;;;;;;2.32;100.00;100463.41;5012202;28;20138;-67
2022/01/07 01:13:16;;;;;;;11.85;6.10;;;;;;;2.15;100.00;100469.41;5012256;28;20034;-67
2022/01/07 01:15:42;;;;;;;13.85;5.45;;;;;;;2.38;100.00;100468.72;5008548;28;20025;-67
2022/01/07 01:18:07;;;;;;;14.77;6.20;;;;;;;2.47;100.00;100471.41;5012270;28;20022;-67
2022/01/07 01:20:32;;;;;;;13.63;6.72;;;;;;;2.44;100.00;100462.63;5012849;28;20182;-67
2022/01/07 01:22:59;;;;;;;9.85;5.65;;;;;;;2.53;100.00;100468.84;4994517;28;20033;-65
2022/01/07 01:25:25;;;;;;;12.70;5.70;;;;;;;2.50;100.00;100463.53;5012511;28;20029;-66
2022/01/07 01:27:50;;;;;;;8.95;5.10;;;;;;;2.58;100.00;100475.00;5012167;28;20032;-66
2022/01/07 01:30:17;;;;;;;9.30;6.20;;;;;;;2.60;100.00;100480.25;5012502;28;20057;-68
2022/01/07 01:32:44;;;;;;;11.88;6.55;;;;;;;2.62;100.00;100474.13;5011821;28;20026;-66
2022/01/07 01:35:10;;;;;;;10.50;5.97;;;;;;;2.52;100.00;100456.56;5011724;28;20030;-67
2022/01/07 01:37:36;;;;;;;10.73;6.60;;;;;;;2.66;100.00;100468.06;5011453;28;20033;-67
2022/01/07 01:40:03;;;;;;;11.90;5.80;;;;;;;2.68;100.00;100471.53;4994469;28;20045;-67
2022/01/07 01:42:28;;;;;;;13.15;5.80;;;;;;;2.66;100.00;100464.53;4993885;28;20025;-67
2022/01/07 01:44:54;;;;;;;10.35;6.03;;;;;;;2.62;100.00;100454.88;5011391;28;20041;-68
2022/01/07 01:47:20;;;;;;;12.23;6.60;;;;;;;2.78;100.00;100461.09;5011109;28;20101;-67
2022/01/07 01:49:45;;;;;;;8.77;5.70;;;;;;;2.75;100.00;100461.97;4979060;28;20050;-68
2022/01/07 01:52:10;;;;;;;10.43;5.38;;;;;;;2.75;100.00;100453.22;4993985;28;20034;-65
2022/01/07 01:54:36;;;;;;;8.10;5.35;;;;;;;2.78;100.00;100463.72;5011726;28;20032;-65
2022/01/07 01:57:02;;;;;;;13.13;5.32;;;;;;;2.81;100.00;100463.75;5011041;28;20026;-65
2022/01/07 01:59:30;;;;;;;8.80;4.75;;;;;;;2.84;100.00;100461.13;5010954;28;20425;-65
2022/01/07 02:01:56;;;;;;;7.25;4.97;;;;;;;2.76;100.00;100465.47;5011399;28;20041;-67
2022/01/07 02:04:22;;;;;;;14.00;6.13;;;;;;;2.76;100.00;100465.47;5011298;28;20029;-66
2022/01/07 02:06:48;;;;;;;8.63;4.70;;;;;;;2.75;100.00;100458.47;5010380;28;20050;-66
2022/01/07 02:09:14;;;;;;;9.07;5.22;;;;;;;2.82;100.00;100469.00;5010712;28;20394;-66
2022/01/07 02:11:40;;;;;;;7.50;4.72;;;;;;;2.86;100.00;100462.91;5010161;28;20018;-66
2022/01/07 02:14:06;;;;;;;10.55;4.93;;;;;;;2.96;100.00;100463.81;5010974;28;20537;-66
2022/01/07 02:16:31;;;;;;;9.07;4.18;;;;;;;2.98;100.00;100457.72;5010827;28;20030;-66
2022/01/07 02:18:57;;;;;;;9.75;4.13;;;;;;;3.00;100.00;100466.47;5010305;28;20510;-66
2022/01/07 02:21:22;;;;;;;10.23;4.00;;;;;;;3.05;100.00;100458.63;4995948;28;20057;-66
2022/01/07 02:23:48;;;;;;;8.82;4.40;;;;;;;3.02;100.00;100459.47;4991544;28;20065;-66
2022/01/07 02:26:14;;;;;;;9.27;3.13;;;;;;;3.09;100.00;100465.63;4989523;28;20426;-66
2022/01/07 02:28:41;;;;;;;9.30;3.45;;;;;;;3.13;100.00;100460.41;4991468;28;20022;-66
2022/01/07 02:31:07;;;;;;;6.15;3.95;;;;;;;3.20;100.00;100454.28;4997700;28;20640;-66
2022/01/07 02:33:32;;;;;;;8.48;3.55;;;;;;;3.17;100.00;100442.91;5010228;28;20109;-66
2022/01/07 02:36:04;;;;;;;6.40;3.40;;;;;;;3.32;100.00;100443.84;5010364;28;22417;-66
2022/01/07 02:38:30;;;;;;;7.55;3.40;;;;;;;3.25;100.00;100422.75;4992681;28;20065;-66
2022/01/07 02:40:55;;;;;;;7.43;3.65;;;;;;;3.36;100.00;100447.34;5010623;28;20057;-66
2022/01/07 02:43:21;;;;;;;10.50;4.43;;;;;;;3.45;100.00;100445.63;5010392;28;20529;-66
2022/01/07 02:45:46;;;;;;;8.25;3.30;;;;;;;3.51;99.64;100444.78;5007371;28;20036;-66
2022/01/07 02:48:11;;;;;;;9.60;4.30;;;;;;;3.51;99.60;100445.63;4990666;28;20022;-66
2022/01/07 02:50:38;;;;;;;7.13;3.63;;;;;;;3.51;99.14;100443.00;4991575;28;20546;-66
2022/01/07 02:53:07;;;;;;;8.00;4.18;;;;;;;3.54;98.77;100447.41;4990900;28;20097;-67
2022/01/07 02:55:32;;;;;;;6.88;3.92;;;;;;;3.47;98.84;100430.75;4990897;28;20084;-67
2022/01/07 02:57:58;;;;;;;7.05;3.53;;;;;;;3.55;98.22;100447.41;4990319;28;20602;-67
2022/01/07 03:00:25;;;;;;;9.82;4.28;;;;;;;3.57;98.15;100447.41;4990087;28;20105;-66
2022/01/07 03:02:51;;;;;;;8.00;4.40;;;;;;;3.60;98.10;100447.41;5005522;28;20474;-66
2022/01/07 03:05:18;;;;;;;6.35;3.55;;;;;;;3.57;97.50;100447.41;5009499;28;20353;-66
2022/01/07 03:07:47;;;;;;;8.10;3.78;;;;;;;3.54;97.61;100442.16;5006459;28;20563;-66
2022/01/07 03:10:13;;;;;;;8.82;3.70;;;;;;;3.19;98.87;100446.41;5009827;28;20111;-66
2022/01/07 03:12:40;;;;;;;7.57;3.80;;;;;;;3.14;100.00;100445.50;5010130;28;20038;-66
2022/01/07 03:15:06;;;;;;;8.75;4.20;;;;;;;3.11;100.00;100446.41;5010446;28;20040;-66
2022/01/07 03:17:32;;;;;;;10.75;4.00;;;;;;;3.03;100.00;100447.22;5009244;28;20026;-66
2022/01/07 03:19:58;;;;;;;8.75;3.30;;;;;;;3.01;100.00;100444.59;5009955;28;20512;-66
2022/01/07 03:22:23;;;;;;;6.68;4.28;;;;;;;2.91;100.00;100429.66;4992205;28;20033;-66
2022/01/07 03:24:49;;;;;;;12.02;3.90;;;;;;;2.98;100.00;100441.97;5009522;28;20037;-66
2022/01/07 03:27:14;;;;;;;12.00;4.22;;;;;;;2.89;100.00;100434.03;5009625;28;20437;-66
2022/01/07 03:29:39;;;;;;;10.00;4.38;;;;;;;2.86;100.00;100431.38;5009954;28;20225;-66
2022/01/07 03:32:05;;;;;;;9.23;4.65;;;;;;;2.77;100.00;100422.59;5009299;28;20366;-66
2022/01/07 03:34:31;;;;;;;5.88;3.67;;;;;;;2.70;100.00;100430.41;5009528;28;20486;-67
2022/01/07 03:36:56;;;;;;;12.32;4.50;;;;;;;2.67;100.00;100433.03;5008936;28;20429;-67
2022/01/07 03:39:22;;;;;;;7.00;4.60;;;;;;;2.59;100.00;100418.09;5009543;28;20060;-66
2022/01/07 03:41:47;;;;;;;7.57;4.53;;;;;;;2.62;100.00;100426.88;5009601;28;20092;-66
2022/01/07 03:44:13;;;;;;;9.18;4.55;;;;;;;2.58;100.00;100434.72;5008132;28;20478;-66
2022/01/07 03:46:38;;;;;;;9.23;3.67;;;;;;;2.62;100.00;100431.25;5008480;28;20009;-66
2022/01/07 03:49:04;;;;;;;8.55;4.25;;;;;;;2.46;100.00;100411.91;5008775;28;20106;-66
2022/01/07 03:51:29;;;;;;;5.18;3.60;;;;;;;2.56;100.00;100434.72;5009252;28;20034;-66
2022/01/07 03:53:54;;;;;;;8.40;4.43;;;;;;;2.54;100.00;100431.22;4991443;28;20025;-66
2022/01/07 03:56:20;;;;;;;13.52;4.82;;;;;;;2.49;100.00;100425.06;5002524;28;20084;-66
2022/01/07 03:58:47;;;;;;;10.05;5.30;;;;;;;2.52;100.00;100414.56;4994916;28;20030;-67
2022/01/07 04:01:12;;;;;;;7.65;4.22;;;;;;;2.53;100.00;100413.72;4996128;28;20026;-66
2022/01/07 04:03:38;;;;;;;9.40;4.78;;;;;;;2.51;100.00;100404.06;5008852;28;20081;-66
2022/01/07 04:06:03;;;;;;;12.32;5.72;;;;;;;2.46;100.00;100406.66;5009032;28;20045;-66
2022/01/07 04:08:28;;;;;;;10.52;4.68;;;;;;;2.38;100.00;100400.50;5008149;28;20489;-66
2022/01/07 04:10:54;;;;;;;8.95;4.35;;;;;;;2.44;100.00;100405.75;4990624;28;20026;-66
2022/01/07 04:13:19;;;;;;;10.80;4.82;;;;;;;2.57;100.00;100412.84;5007520;28;20026;-67
2022/01/07 04:15:45;;;;;;;8.60;5.03;;;;;;;2.41;100.00;100389.13;5008184;28;20033;-67
2022/01/07 04:18:10;;;;;;;8.52;4.63;;;;;;;2.42;100.00;100397.00;4997988;28;20038;-67
2022/01/07 04:20:36;;;;;;;6.82;4.22;;;;;;;2.48;100.00;100411.91;4989550;28;20368;-66
2022/01/07 04:23:03;;;;;;;10.68;4.78;;;;;;;2.42;100.00;100388.28;4989703;28;20435;-66
2022/01/07 04:25:29;;;;;;;9.27;4.68;;;;;;;2.47;100.00;100403.16;4989584;28;20478;-66
2022/01/07 04:27:59;;;;;;;11.57;4.50;;;;;;;2.53;100.00;100400.59;4988418;28;20072;-66
2022/01/07 04:30:26;;;;;;;10.90;5.40;;;;;;;2.55;100.00;100401.44;4997756;28;20096;-66
2022/01/07 04:32:53;;;;;;;11.00;4.82;;;;;;;2.54;100.00;100406.69;4998197;28;20022;-66
2022/01/07 04:35:20;;;;;;;11.93;5.10;;;;;;;2.54;100.00;100412.81;4989467;28;20026;-66
2022/01/07 04:37:46;;;;;;;12.60;6.28;;;;;;;2.57;100.00;100407.59;4989285;28;20037;-66
2022/01/07 04:40:13;;;;;;;18.65;6.25;;;;;;;2.46;100.00;100388.28;4991095;28;20031;-66
2022/01/07 04:42:39;;;;;;;10.32;5.47;;;;;;;2.68;100.00;100411.13;4989053;28;20057;-66
2022/01/07 04:45:06;;;;;;;9.95;6.10;;;;;;;2.70;100.00;100409.41;4989632;28;20034;-66
2022/01/07 04:47:35;;;;;;;18.30;6.53;;;;;;;2.77;100.00;100404.22;4988957;28;20033;-66
2022/01/07 04:50:01;;;;;;;14.30;6.88;;;;;;;2.77;100.00;100398.97;4971635;28;20525;-66
2022/01/07 04:52:26;;;;;;;13.02;6.50;;;;;;;2.78;100.00;100396.34;4988647;28;20574;-66
2022/01/07 04:54:52;;;;;;;11.38;6.07;;;;;;;2.73;100.00;100398.91;4989229;28;20140;-66
2022/01/07 04:57:17;;;;;;;10.98;6.53;;;;;;;2.77;100.00;100399.81;4988249;28;20378;-66
2022/01/07 04:59:42;;;;;;;12.88;7.15;;;;;;;2.73;100.00;100383.16;4989030;28;20026;-66
2022/01/07 05:02:08;;;;;;;15.23;6.65;;;;;;;2.80;100.00;100402.44;5002795;28;20053;-66
2022/01/07 05:04:33;;;;;;;14.63;6.85;;;;;;;2.83;100.00;100414.72;5008932;28;20050;-66
2022/01/07 05:06:59;;;;;;;14.52;7.03;;;;;;;2.85;100.00;100405.13;5004053;28;20572;-66
2022/01/07 05:09:24;;;;;;;16.98;6.90;;;;;;;2.82;100.00;100402.47;5008650;28;20030;-66
2022/01/07 05:11:52;;;;;;;9.52;5.35;;;;;;;2.85;100.00;100397.22;5005079;28;20034;-66
2022/01/07 05:14:19;;;;;;;15.55;7.35;;;;;;;2.86;100.00;100391.09;5008248;28;20025;-66
2022/01/07 05:16:44;;;;;;;11.10;6.45;;;;;;;2.86;100.00;100386.72;5007995;28;20049;-66
2022/01/07 05:19:11;;;;;;;16.30;6.43;;;;;;;2.85;100.00;100386.72;5008061;28;20113;-66
2022/01/07 05:21:38;;;;;;;15.05;7.15;;;;;;;2.78;100.00;100390.19;5009016;28;20177;-66
2022/01/07 05:24:04;;;;;;;10.73;6.95;;;;;;;2.79;100.00;100384.06;5008362;28;20060;-66
2022/01/07 05:26:29;;;;;;;16.65;7.00;;;;;;;2.79;100.00;100378.81;4990799;28;20034;-66
2022/01/07 05:28:56;;;;;;;11.38;6.75;;;;;;;2.77;100.00;100377.94;5010478;28;20979;-66
2022/01/07 05:31:22;;;;;;;13.10;6.93;;;;;;;2.79;100.00;100381.44;5011442;28;20394;-66
2022/01/07 05:33:52;;;;;;;16.30;7.30;;;;;;;2.83;100.00;100364.81;5011896;28;20026;-66
2022/01/07 05:36:19;;;;;;;14.18;6.90;;;;;;;2.82;100.00;100378.84;5011366;28;20042;-66
2022/01/07 05:38:45;;;;;;;13.23;6.85;;;;;;;2.77;100.00;100375.31;5011612;28;20029;-67
2022/01/07 05:41:10;;;;;;;16.00;7.20;;;;;;;2.70;100.00;100342.91;5010931;28;20045;-67
2022/01/07 05:43:35;;;;;;;11.00;6.00;;;;;;;2.81;100.00;100358.69;5012057;28;20073;-67
2022/01/07 05:46:01;;;;;;;19.67;7.38;;;;;;;2.86;100.00;100359.56;5011451;28;20032;-66
2022/01/07 05:48:39;;;;;;;14.57;7.13;;;;;;;2.75;100.00;100350.78;5011705;28;20037;-66
2022/01/07 05:51:05;;;;;;;18.73;7.72;;;;;;;2.80;100.00;100352.53;5011450;28;20478;-66
2022/01/07 05:53:30;;;;;;;12.43;6.47;;;;;;;2.84;100.00;100361.31;5011705;28;20028;-66
2022/01/07 05:55:56;;;;;;;12.43;7.65;;;;;;;2.89;100.00;100349.97;5010773;28;20026;-66
2022/01/07 05:58:21;;;;;;;12.55;5.93;;;;;;;2.87;100.00;100356.09;4993183;28;20505;-66
2022/01/07 06:00:47;;;;;;;15.25;6.32;;;;;;;2.86;100.00;100351.69;5010388;28;20042;-66
2022/01/07 06:03:12;;;;;;;10.07;5.47;;;;;;;2.81;100.00;100335.94;5011196;28;20384;-66
2022/01/07 06:05:39;;;;;;;16.98;7.07;;;;;;;2.87;100.00;100350.84;5010538;28;20083;-66
2022/01/07 06:08:04;;;;;;;10.63;5.28;;;;;;;2.87;100.00;100353.47;5011395;28;20204;-66
2022/01/07 06:10:30;;;;;;;10.30;5.43;;;;;;;2.79;100.00;100352.53;5010984;28;20346;-66
2022/01/07 06:12:55;;;;;;;9.80;5.22;;;;;;;2.84;99.99;100348.19;5010916;28;20034;-66
2022/01/07 06:15:21;;;;;;;12.05;5.13;;;;;;;2.86;99.68;100351.69;5010862;28;20026;-66
2022/01/07 06:17:47;;;;;;;9.10;4.78;;;;;;;2.84;99.79;100354.31;5010094;28;20478;-67
2022/01/07 06:20:13;;;;;;;11.30;5.43;;;;;;;2.78;98.91;100332.41;5011076;28;20430;-66
2022/01/07 06:22:38;;;;;;;10.57;5.30;;;;;;;2.79;99.11;100328.91;5009668;28;20057;-66
2022/01/07 06:25:05;;;;;;;8.52;4.55;;;;;;;2.82;98.60;100328.94;5011047;28;20112;-66
2022/01/07 06:27:30;;;;;;;13.77;4.53;;;;;;;2.80;98.37;100330.69;5011049;28;20030;-66
2022/01/07 06:29:57;;;;;;;7.13;4.25;;;;;;;2.81;98.50;100335.03;5004033;28;20127;-66
2022/01/07 06:32:23;;;;;;;8.80;4.88;;;;;;;2.78;98.88;100333.31;5007343;28;20106;-66
2022/01/07 06:34:50;;;;;;;11.80;4.78;;;;;;;2.83;98.73;100338.56;4992688;28;20033;-66
2022/01/07 06:37:15;;;;;;;7.38;4.60;;;;;;;2.75;97.77;100329.78;5009547;28;20053;-66
2022/01/07 06:39:41;;;;;;;10.25;4.80;;;;;;;2.83;97.81;100335.94;5002990;28;20030;-66
2022/01/07 06:42:06;;;;;;;10.98;5.15;;;;;;;2.84;97.60;100327.16;4991266;28;20026;-66
2022/01/07 06:44:32;;;;;;;8.98;4.97;;;;;;;2.82;97.15;100334.19;4991493;28;20383;-66
2022/01/07 06:46:58;;;;;;;12.93;5.40;;;;;;;2.84;97.02;100340.31;4972917;28;20390;-66
2022/01/07 06:49:23;;;;;;;7.60;5.25;;;;;;;2.76;97.20;100314.03;4990740;28;20028;-67
2022/01/07 06:51:50;;;;;;;9.60;5.05;;;;;;;2.89;96.98;100335.94;4990947;28;20030;-67
2022/01/07 06:54:16;;;;;;;11.38;5.07;;;;;;;2.81;96.66;100314.03;4990694;28;20121;-67
2022/01/07 06:56:42;;;;;;;12.07;4.95;;;;;;;2.89;96.43;100335.94;4990847;28;20109;-67
2022/01/07 06:59:08;;;;;;;10.68;5.53;;;;;;;2.83;96.90;100313.19;4975115;28;20032;-67
2022/01/07 07:01:34;;;;;;;9.63;5.15;;;;;;;2.89;96.77;100326.31;5000825;28;20026;-67
2022/01/07 07:03:59;;;;;;;9.30;4.90;;;;;;;2.78;96.18;100303.53;4992526;28;20022;-66
2022/01/07 07:06:25;;;;;;;12.90;7.07;;;;;;;2.89;96.39;100320.19;5009467;28;20121;-66
2022/01/07 07:08:50;;;;;;;11.90;6.38;;;;;;;2.93;96.17;100316.72;5009989;28;20076;-66
2022/01/07 07:11:16;;;;;;;8.20;4.13;;;;;;;2.93;95.97;100314.97;5010500;28;20452;-66
2022/01/07 07:13:41;;;;;;;12.82;5.10;;;;;;;2.94;95.86;100313.19;5009892;28;20022;-66
2022/01/07 07:16:06;;;;;;;9.95;6.07;;;;;;;2.87;96.28;100296.53;5009095;28;20117;-66
2022/01/07 07:18:35;;;;;;;7.75;4.40;;;;;;;2.99;96.14;100306.19;4990625;28;20441;-66
2022/01/07 07:21:00;;;;;;;7.65;4.68;;;;;;;2.93;95.79;100293.94;5006417;28;20166;-66
2022/01/07 07:23:26;;;;;;;8.93;4.78;;;;;;;2.98;95.61;100293.94;4992260;28;20034;-66
2022/01/07 07:25:51;;;;;;;11.77;5.53;;;;;;;3.08;95.27;100298.34;5009343;28;20025;-66
2022/01/07 07:28:18;;;;;;;11.57;5.68;;;;;;;3.21;95.56;100305.38;5009474;28;20034;-66
2022/01/07 07:30:44;;;;;;;11.98;5.00;;;;;;;3.19;95.39;100294.88;5009870;28;20088;-66
2022/01/07 07:33:30;;;;;;;8.48;3.88;;;;;;;3.26;95.43;100303.63;5007744;28;20042;-66
2022/01/07 07:38:42;;;;;;;8.65;4.57;;;;;;;3.28;94.82;100301.91;5009767;28;20136;-67
2022/01/07 07:41:08;;;;;;;7.90;4.30;;;;;;;3.28;94.73;100299.25;5009292;28;20558;-67
2022/01/07 07:43:34;;;;;;;7.82;3.63;;;;;;;3.24;94.77;100290.50;5009633;28;20026;-67
2022/01/07 07:46:00;;;;;;;8.40;4.10;;;;;;;3.29;94.73;100293.13;5009317;28;20025;-67
2022/01/07 07:48:26;;;;;;;6.88;4.05;;;;;;;3.30;94.22;100290.50;5009347;28;20025;-67
2022/01/07 07:50:51;;;;;;;8.90;3.95;;;;;;;3.35;93.88;100285.22;5009055;28;20470;-67
2022/01/07 07:53:18;;;;;;;9.13;4.65;;;;;;;3.33;93.42;100279.09;5008689;28;20029;-67
2022/01/07 07:55:51;;;;;;;11.02;4.00;;;;;;;3.41;93.09;100291.34;5008436;28;20474;-67
2022/01/07 07:58:16;;;;;;;12.73;5.20;;;;;;;3.37;93.13;100286.09;5008572;28;20041;-71
2022/01/07 08:00:42;;;;;;;8.55;5.10;;;;;;;3.43;93.41;100286.97;4990530;28;20037;-68
2022/01/07 08:03:07;;;;;;;12.98;4.03;;;;;;;3.40;92.58;100291.38;5009190;28;20025;-68
2022/01/07 08:05:33;;;;;;;8.27;4.45;;;;;;;3.40;92.59;100286.09;5008625;28;20032;-68
2022/01/07 08:08:02;;;;;;;10.68;4.85;;;;;;;3.47;92.87;100291.38;5008925;28;20387;-68
2022/01/07 08:10:28;;;;;;;15.38;6.70;;;;;;;3.49;92.57;100294.00;4991431;28;20025;-68
2022/01/07 08:13:15;;;;;;;86.70;33.35;;;;;;;3.44;92.50;100269.47;5009341;28;20021;-67
2022/01/07 08:15:58;;;;;;;40.83;18.00;;;;;;;3.64;92.60;100294.00;5009046;28;20026;-67
2022/01/07 08:18:32;;;;;;;11.85;6.68;;;;;;;3.69;91.63;100287.00;5008336;28;20390;-68
2022/01/07 08:21:04;;;;;;;9.43;4.78;;;;;;;3.73;91.00;100278.22;5009385;28;20057;-68
2022/01/07 08:23:32;;;;;;;9.10;4.15;;;;;;;3.75;90.06;100281.72;5009065;28;20065;-68
2022/01/07 08:25:58;;;;;;;9.20;4.78;;;;;;;3.79;90.49;100273.81;5008393;28;20100;-67
2022/01/07 08:28:27;;;;;;;10.43;4.75;;;;;;;3.81;89.50;100266.81;4991177;28;20366;-68
2022/01/07 08:36:15;;;;;;;8.10;4.38;;;;;;;3.88;88.06;100259.78;5004926;28;20150;-68
2022/01/07 08:38:41;;;;;;;10.45;4.82;;;;;;;3.93;88.83;100255.38;5008829;28;20445;-68
2022/01/07 08:41:07;;;;;;;9.38;4.57;;;;;;;3.97;88.93;100247.47;5008345;28;20125;-68
2022/01/07 08:43:32;;;;;;;9.32;5.20;;;;;;;3.85;88.54;100230.84;5009149;28;20474;-69
2022/01/07 08:45:58;;;;;;;8.32;5.00;;;;;;;3.90;87.36;100231.72;5008636;28;20033;-68
2022/01/07 08:48:26;;;;;;;7.88;4.22;;;;;;;3.96;87.69;100243.09;5008409;28;20034;-67
2022/01/07 08:50:52;;;;;;;7.38;4.80;;;;;;;4.08;88.02;100247.44;5008870;28;20040;-69
2022/01/07 08:53:17;;;;;;;9.95;4.55;;;;;;;4.17;88.08;100250.03;5008534;28;20017;-67
2022/01/07 08:55:43;;;;;;;9.98;4.75;;;;;;;4.23;87.46;100249.16;5008565;28;20062;-67
2022/01/07 08:58:08;;;;;;;9.50;4.50;;;;;;;4.17;86.79;100259.72;5008336;28;20124;-66
2022/01/07 09:00:33;;;;;;;6.70;4.07;;;;;;;4.14;86.62;100247.41;5008987;28;20398;-65
2022/01/07 09:03:00;;;;;;;9.25;4.70;;;;;;;4.26;87.18;100257.91;5006457;28;20033;-65
2022/01/07 09:05:26;;;;;;;12.00;5.07;;;;;;;4.25;86.83;100268.47;5011961;28;20096;-65
2022/01/07 09:07:51;;;;;;;7.15;4.05;;;;;;;4.28;87.19;100261.44;5011536;28;20057;-67
2022/01/07 09:10:17;;;;;;;9.45;4.57;;;;;;;4.25;86.88;100250.88;5012425;28;20105;-67
2022/01/07 09:12:42;;;;;;;9.07;4.55;;;;;;;4.15;86.01;100241.28;5012344;28;20017;-66
2022/01/07 09:15:08;;;;;;;8.20;4.45;;;;;;;4.30;86.45;100262.28;5012286;28;20033;-67
2022/01/07 09:17:35;;;;;;;9.95;5.07;;;;;;;4.36;86.52;100261.38;5011842;28;20463;-67
2022/01/07 09:20:01;;;;;;;7.72;4.70;;;;;;;4.31;86.61;100253.50;5002561;28;20027;-67
2022/01/07 09:22:27;;;;;;;8.27;4.18;;;;;;;4.25;86.72;100250.03;4992580;28;21119;-67
2022/01/07 09:24:52;;;;;;;9.63;3.80;;;;;;;4.31;87.17;100253.50;4992182;28;20030;-67
2022/01/07 09:27:17;;;;;;;6.05;3.90;;;;;;;4.27;87.34;100257.03;4990793;28;20022;-67
2022/01/07 09:29:43;;;;;;;7.60;3.63;;;;;;;4.27;86.89;100253.53;4974882;28;20121;-67
2022/01/07 09:32:08;;;;;;;8.23;5.45;;;;;;;4.31;86.77;100264.03;5006509;28;20033;-67
2022/01/07 09:34:35;;;;;;;7.65;3.97;;;;;;;4.21;87.34;100256.16;5012523;28;20049;-67
2022/01/07 09:37:02;;;;;;;9.82;5.65;;;;;;;4.29;87.44;100271.06;5011137;28;20079;-67
2022/01/07 09:39:28;;;;;;;15.43;8.82;;;;;;;4.26;87.96;100264.94;5011442;28;20037;-66
2022/01/07 09:41:53;;;;;;;7.43;4.78;;;;;;;4.32;88.02;100276.31;5011675;28;20401;-66
2022/01/07 09:44:18;;;;;;;6.60;4.18;;;;;;;4.24;88.37;100261.41;5011839;28;20497;-67
2022/01/07 09:46:44;;;;;;;11.90;5.00;;;;;;;4.24;89.80;100272.84;4993453;28;20058;-66
2022/01/07 09:49:10;;;;;;;10.98;4.70;;;;;;;4.17;90.60;100276.34;5011023;28;20485;-67
2022/01/07 09:51:40;;;;;;;18.33;9.45;;;;;;;4.04;90.81;100261.47;5011788;28;20386;-67
2022/01/07 09:54:06;;;;;;;10.35;5.18;;;;;;;4.12;91.20;100267.59;5011764;28;20104;-67
2022/01/07 09:56:32;;;;;;;7.45;4.03;;;;;;;4.05;91.64;100271.16;5011344;28;20433;-67
2022/01/07 09:58:58;;;;;;;9.02;4.72;;;;;;;4.00;92.06;100254.50;5011162;28;20061;-67
2022/01/07 10:01:25;;;;;;;8.30;4.80;;;;;;;4.10;92.64;100261.47;5010790;28;20481;-67
2022/01/07 10:03:51;;;;;;;6.97;4.45;;;;;;;4.12;92.75;100257.06;5011619;28;20715;-67
2022/01/07 10:06:22;;;;;;;9.30;4.82;;;;;;;4.12;93.75;100250.94;5010134;28;20081;-67
2022/01/07 10:09:07;;;;;;;8.20;4.82;;;;;;;4.17;94.47;100239.50;5011243;28;20038;-67
2022/01/07 10:11:33;;;;;;;8.80;4.43;;;;;;;4.25;94.81;100237.72;5011397;28;20029;-67
2022/01/07 10:14:22;;;;;;;7.63;4.68;;;;;;;4.31;94.85;100237.72;5010748;28;20034;-67
2022/01/07 10:16:54;;;;;;;7.97;4.10;;;;;;;4.46;94.64;100240.28;5010559;28;20025;-67
2022/01/07 10:19:40;;;;;;;7.55;5.07;;;;;;;4.55;93.59;100237.59;5010452;28;20105;-67
2022/01/07 10:22:07;;;;;;;8.65;4.68;;;;;;;4.70;92.99;100240.16;5010940;28;20032;-67
2022/01/07 10:25:02;;;;;;;6.80;4.03;;;;;;;4.59;91.34;100218.28;4993064;28;20152;-67
2022/01/07 10:27:36;;;;;;;8.18;4.47;;;;;;;4.69;91.87;100225.25;5010537;28;20080;-67
2022/01/07 10:30:10;;;;;;;6.95;3.78;;;;;;;4.69;91.68;100233.13;5010835;28;20025;-67
2022/01/07 10:32:37;;;;;;;7.07;4.07;;;;;;;4.64;91.43;100232.28;5010399;28;20017;-67
2022/01/07 10:35:19;;;;;;;9.07;4.22;;;;;;;4.71;91.71;100223.44;5007652;28;20041;-67
2022/01/07 10:37:48;;;;;;;8.85;3.80;;;;;;;4.65;91.09;100218.22;5009539;28;20175;-67
2022/01/07 10:40:22;;;;;;;9.07;4.43;;;;;;;4.77;91.31;100233.97;4992784;28;20041;-67
2022/01/07 10:42:48;;;;;;;11.05;4.15;;;;;;;4.74;91.88;100222.56;5007276;28;20045;-67
2022/01/07 10:45:13;;;;;;;6.50;3.60;;;;;;;4.70;91.81;100213.81;5010681;28;20550;-67
2022/01/07 10:47:39;;;;;;;8.32;4.13;;;;;;;4.72;92.09;100214.69;5009708;28;20026;-67
2022/01/07 10:50:23;;;;;;;8.82;4.80;;;;;;;4.65;92.61;100212.94;5010558;28;20035;-67
2022/01/07 10:52:50;;;;;;;12.88;4.47;;;;;;;4.76;92.78;100210.28;5008912;28;20091;-67
2022/01/07 10:55:21;;;;;;;9.82;5.03;;;;;;;4.78;93.10;100198.81;5000444;28;20042;-67
2022/01/07 10:57:49;;;;;;;7.90;4.05;;;;;;;4.78;91.79;100190.91;5004557;28;20117;-68
2022/01/07 11:00:18;;;;;;;7.82;4.30;;;;;;;4.82;92.08;100194.41;5008419;28;20040;-67
2022/01/07 11:02:44;;;;;;;10.98;4.50;;;;;;;5.00;91.59;100192.53;5006622;28;20030;-67
2022/01/07 11:05:10;;;;;;;11.50;4.57;;;;;;;5.14;91.52;100188.00;5007733;28;20113;-68
2022/01/07 11:07:36;;;;;;;8.60;4.35;;;;;;;5.30;90.13;100183.50;5008175;28;20089;-67
2022/01/07 11:10:06;;;;;;;11.23;4.68;;;;;;;5.34;88.55;100170.25;4990020;28;20057;-68
2022/01/07 11:12:33;;;;;;;8.27;4.38;;;;;;;5.36;88.48;100167.59;5008500;28;20381;-67
2022/01/07 11:14:59;;;;;;;7.35;4.70;;;;;;;5.47;88.25;100172.78;5009785;28;20099;-67
2022/01/07 11:17:26;;;;;;;5.75;3.40;;;;;;;5.42;87.26;100182.50;5001988;28;20030;-67
2022/01/07 11:19:55;;;;;;;7.13;4.10;;;;;;;5.47;87.21;100184.19;4996394;28;20678;-67
2022/01/07 11:22:22;;;;;;;7.60;3.50;;;;;;;5.15;85.95;100131.78;4990241;28;20042;-67
2022/01/07 11:24:56;;;;;;;6.65;3.40;;;;;;;5.37;85.94;100175.50;4992427;28;20040;-67
2022/01/07 11:27:27;;;;;;;7.53;3.63;;;;;;;5.29;86.42;100177.34;4990357;28;20033;-67
2022/01/07 11:29:59;;;;;;;7.75;3.50;;;;;;;5.32;86.63;100179.94;5009708;28;20030;-68